Time;durP1;ratioP1;P1;durP2;ratioP2;P2;SDS_P1;SDS_P2;PMS_P1;PMS_P2;Temp;Humidity;BMP_temperature;BMP_pressure;BME280_temperature;BME280_humidity;BME280_pressure;Samples;Min_cycle;Max_cycle;Signal;HPM_P1;HPM_P2
2020/12/12 00:00:19;;;;;;;25.83;23.20;;;4.90;99.90;;;;;;4964279;28;20471;-86
2020/12/12 00:02:45;;;;;;;27.57;23.73;;;4.90;99.90;;;;;;4963445;28;20499;-83
2020/12/12 00:05:11;;;;;;;24.43;22.03;;;4.90;99.90;;;;;;4962219;28;20463;-83
2020/12/12 00:07:37;;;;;;;28.23;25.20;;;4.90;99.90;;;;;;4959609;28;20436;-82
2020/12/12 00:10:04;;;;;;;26.03;23.40;;;4.90;99.90;;;;;;4961621;28;20448;-81
2020/12/12 00:12:31;;;;;;;25.97;23.33;;;5.00;99.90;;;;;;4959363;28;20444;-82
2020/12/12 00:14:57;;;;;;;28.13;24.23;;;5.00;99.90;;;;;;4961523;28;20992;-81
2020/12/12 00:17:23;;;;;;;23.27;21.03;;;5.00;99.90;;;;;;4959591;28;20452;-81
2020/12/12 00:19:50;;;;;;;21.93;19.93;;;5.00;99.90;;;;;;4961830;28;20462;-82
2020/12/12 00:22:16;;;;;;;21.60;19.57;;;5.00;99.90;;;;;;4960492;28;20476;-83
2020/12/12 00:24:42;;;;;;;23.33;21.03;;;5.10;99.90;;;;;;4959703;28;20447;-82
2020/12/12 00:27:10;;;;;;;24.03;21.83;;;5.20;99.90;;;;;;4961303;28;20949;-82
2020/12/12 00:29:36;;;;;;;21.93;19.83;;;5.20;99.90;;;;;;4959289;28;20448;-82
2020/12/12 00:32:02;;;;;;;21.83;19.73;;;5.20;99.90;;;;;;4961122;28;20784;-81
2020/12/12 00:34:29;;;;;;;24.20;21.80;;;5.20;99.90;;;;;;4961072;28;20491;-82
2020/12/12 00:36:55;;;;;;;23.33;20.60;;;5.30;99.90;;;;;;4959800;28;20439;-80
2020/12/12 00:39:22;;;;;;;26.33;21.97;;;5.30;99.90;;;;;;4961819;28;20447;-80
2020/12/12 00:41:49;;;;;;;23.80;21.30;;;5.30;99.90;;;;;;4965982;28;20490;-78
2020/12/12 00:44:17;;;;;;;25.23;22.83;;;5.40;99.90;;;;;;4963044;28;20443;-80
2020/12/12 00:46:44;;;;;;;24.40;21.90;;;5.40;99.90;;;;;;4965623;28;20655;-80
2020/12/12 00:49:11;;;;;;;23.80;21.27;;;5.40;99.90;;;;;;4962909;28;20519;-78
2020/12/12 00:51:38;;;;;;;23.87;21.57;;;5.40;99.90;;;;;;4962969;28;20443;-79
2020/12/12 00:54:04;;;;;;;25.43;22.80;;;5.40;99.90;;;;;;4964461;28;20447;-79
2020/12/12 00:56:30;;;;;;;23.37;20.97;;;5.40;99.90;;;;;;4962721;28;20781;-80
2020/12/12 00:58:57;;;;;;;25.57;22.97;;;5.40;99.90;;;;;;4962521;28;20950;-78
2020/12/12 01:01:24;;;;;;;23.87;21.67;;;5.40;99.90;;;;;;4965900;28;20491;-80
2020/12/12 01:03:50;;;;;;;23.30;21.00;;;5.40;99.90;;;;;;4964312;28;20506;-78
2020/12/12 01:06:18;;;;;;;22.77;20.67;;;5.40;99.90;;;;;;4963159;28;20456;-79
2020/12/12 01:08:45;;;;;;;23.47;21.10;;;5.50;99.90;;;;;;4963483;28;20467;-80
2020/12/12 01:11:12;;;;;;;24.63;21.97;;;5.50;99.90;;;;;;4964423;28;20460;-78
2020/12/12 01:13:39;;;;;;;23.20;20.80;;;5.50;99.90;;;;;;4963143;28;20458;-78
2020/12/12 01:16:06;;;;;;;22.17;20.20;;;5.50;99.90;;;;;;4962957;28;20455;-77
2020/12/12 01:18:33;;;;;;;25.60;22.20;;;5.50;99.90;;;;;;4964710;28;20691;-78
2020/12/12 01:21:00;;;;;;;23.20;21.10;;;5.50;99.90;;;;;;4962282;28;20471;-78
2020/12/12 01:23:26;;;;;;;23.77;21.43;;;5.40;99.90;;;;;;4963930;28;20854;-78
2020/12/12 01:25:52;;;;;;;25.00;21.30;;;5.40;99.90;;;;;;4963569;28;20456;-78
2020/12/12 01:28:20;;;;;;;23.40;21.20;;;5.40;99.90;;;;;;4962298;28;20455;-78
2020/12/12 01:30:47;;;;;;;27.10;24.47;;;5.40;99.90;;;;;;4962969;28;20939;-79
2020/12/12 01:33:14;;;;;;;24.00;21.80;;;5.40;99.90;;;;;;4963019;28;20452;-79
2020/12/12 01:35:41;;;;;;;23.50;21.37;;;5.50;99.90;;;;;;4961787;28;20454;-79
2020/12/12 01:38:07;;;;;;;26.67;22.77;;;5.50;99.90;;;;;;4963636;28;20633;-79
2020/12/12 01:40:33;;;;;;;26.07;21.77;;;5.50;99.90;;;;;;4962768;28;20452;-80
2020/12/12 01:43:00;;;;;;;21.60;19.50;;;5.50;99.90;;;;;;4961715;28;20483;-79
2020/12/12 01:45:26;;;;;;;23.67;21.20;;;5.50;99.90;;;;;;4963496;28;20444;-81
2020/12/12 01:47:52;;;;;;;23.90;21.60;;;5.50;99.90;;;;;;4961934;28;20447;-81
2020/12/12 01:50:18;;;;;;;26.47;23.30;;;5.50;99.90;;;;;;4963741;28;20502;-81
2020/12/12 01:52:50;;;;;;;24.13;21.87;;;5.50;99.90;;;;;;4963996;28;20444;-81
2020/12/12 01:55:17;;;;;;;23.67;21.40;;;5.50;99.90;;;;;;4963803;28;20452;-81
2020/12/12 01:57:47;;;;;;;24.40;21.83;;;5.40;99.90;;;;;;4961794;28;20447;-81
2020/12/12 02:00:13;;;;;;;23.50;21.33;;;5.40;99.90;;;;;;4961903;28;20456;-80
2020/12/12 02:02:42;;;;;;;22.70;20.37;;;5.30;99.90;;;;;;4963183;28;20480;-80
2020/12/12 02:05:11;;;;;;;25.03;22.53;;;5.30;99.90;;;;;;4963070;28;20446;-79
2020/12/12 02:07:37;;;;;;;26.00;23.30;;;5.30;99.90;;;;;;4961954;28;20460;-79
2020/12/12 02:10:04;;;;;;;25.10;22.63;;;5.30;99.90;;;;;;4961869;28;20443;-79
2020/12/12 02:12:31;;;;;;;25.90;23.37;;;5.20;99.90;;;;;;4963137;28;20926;-79
2020/12/12 02:14:57;;;;;;;22.23;20.03;;;5.20;99.90;;;;;;4960251;28;20479;-79
2020/12/12 02:17:23;;;;;;;23.40;21.10;;;5.20;99.90;;;;;;4962245;28;20448;-79
2020/12/12 02:19:49;;;;;;;23.67;21.20;;;5.20;99.90;;;;;;4961063;28;20452;-78
2020/12/12 02:22:16;;;;;;;24.70;22.40;;;5.20;99.90;;;;;;4962449;28;20494;-78
2020/12/12 02:24:42;;;;;;;23.10;20.77;;;5.20;99.90;;;;;;4960880;28;20855;-77
2020/12/12 02:27:08;;;;;;;24.03;21.17;;;5.10;99.90;;;;;;4960689;28;20451;-77
2020/12/12 02:29:45;;;;;;;24.20;22.10;;;5.10;99.90;;;;;;4962721;28;20459;-77
2020/12/12 02:32:11;;;;;;;24.97;22.47;;;5.00;99.90;;;;;;4960592;28;20708;-77
2020/12/12 02:34:37;;;;;;;26.40;23.70;;;5.00;99.90;;;;;;4962701;28;20444;-77
2020/12/12 02:37:04;;;;;;;27.50;24.00;;;5.00;99.90;;;;;;4961095;28;20806;-78
2020/12/12 02:39:31;;;;;;;25.57;23.17;;;4.90;99.90;;;;;;4963056;28;20455;-79
2020/12/12 02:41:57;;;;;;;24.13;21.73;;;5.00;99.90;;;;;;4961333;28;20547;-79
2020/12/12 02:44:23;;;;;;;27.83;25.07;;;4.90;99.90;;;;;;4962562;28;20448;-79
2020/12/12 02:46:49;;;;;;;28.77;23.20;;;5.00;99.90;;;;;;4961824;28;20462;-79
2020/12/12 02:49:15;;;;;;;24.23;21.87;;;4.90;99.90;;;;;;4961096;28;20514;-79
2020/12/12 02:51:42;;;;;;;25.30;22.70;;;5.00;99.90;;;;;;4962499;28;21736;-77
2020/12/12 02:54:09;;;;;;;25.40;22.90;;;5.00;99.90;;;;;;4962621;28;20448;-78
2020/12/12 02:56:36;;;;;;;24.87;22.40;;;5.00;99.90;;;;;;4961389;28;20507;-79
2020/12/12 02:59:02;;;;;;;26.17;23.37;;;4.90;99.90;;;;;;4961068;28;20448;-80
2020/12/12 03:01:29;;;;;;;26.13;23.93;;;4.90;99.90;;;;;;4962568;28;20800;-79
2020/12/12 03:03:55;;;;;;;26.03;22.50;;;4.90;99.90;;;;;;4961730;28;20476;-79
2020/12/12 03:06:21;;;;;;;27.50;24.50;;;4.90;99.90;;;;;;4962477;28;20471;-79
2020/12/12 03:08:47;;;;;;;26.27;23.57;;;4.90;99.90;;;;;;4962198;28;20444;-78
2020/12/12 03:11:14;;;;;;;28.10;25.20;;;4.90;99.90;;;;;;4960079;28;20451;-78
2020/12/12 03:13:41;;;;;;;28.03;24.83;;;4.90;99.90;;;;;;4962190;28;20450;-78
2020/12/12 03:16:07;;;;;;;32.07;27.67;;;4.90;99.90;;;;;;4960583;28;20528;-80
2020/12/12 03:18:33;;;;;;;30.37;27.13;;;4.90;99.90;;;;;;4960852;28;20467;-81
2020/12/12 03:20:59;;;;;;;29.53;23.90;;;4.90;99.90;;;;;;4961622;28;20456;-78
2020/12/12 03:23:25;;;;;;;30.33;27.13;;;4.90;99.90;;;;;;4960178;28;20492;-79
2020/12/12 03:25:51;;;;;;;26.07;23.37;;;4.90;99.90;;;;;;4961957;28;20455;-79
2020/12/12 03:28:18;;;;;;;40.00;25.67;;;4.90;99.90;;;;;;4961600;28;20467;-78
2020/12/12 03:30:45;;;;;;;29.47;26.20;;;4.90;99.90;;;;;;4960039;28;20447;-78
2020/12/12 03:33:11;;;;;;;26.03;23.40;;;4.90;99.90;;;;;;4961063;28;20656;-72
2020/12/12 03:35:37;;;;;;;28.90;26.07;;;4.90;99.90;;;;;;4960688;28;20448;-79
2020/12/12 03:38:03;;;;;;;28.53;24.63;;;4.90;99.90;;;;;;4963256;28;20459;-79
2020/12/12 03:40:29;;;;;;;28.20;22.83;;;4.90;99.90;;;;;;4963762;28;20462;-79
2020/12/12 03:42:56;;;;;;;25.00;22.50;;;4.90;99.90;;;;;;4959973;28;20495;-79
2020/12/12 03:45:22;;;;;;;26.93;24.17;;;5.00;99.90;;;;;;4962126;28;20455;-80
2020/12/12 03:47:49;;;;;;;26.43;23.87;;;5.00;99.90;;;;;;4961049;28;20443;-79
2020/12/12 03:50:16;;;;;;;25.27;22.87;;;5.00;99.90;;;;;;4960197;28;20448;-80
2020/12/12 03:52:42;;;;;;;26.60;23.80;;;5.00;99.90;;;;;;4962314;28;20439;-81
2020/12/12 03:55:08;;;;;;;25.63;23.13;;;5.10;99.90;;;;;;4959752;28;20458;-81
2020/12/12 03:57:35;;;;;;;26.27;23.70;;;5.10;99.90;;;;;;4961192;28;20459;-81
2020/12/12 04:00:01;;;;;;;21.57;19.37;;;5.20;99.90;;;;;;4961431;28;20452;-81
2020/12/12 04:02:27;;;;;;;23.80;21.40;;;5.30;99.90;;;;;;4960011;28;20498;-81
2020/12/12 04:04:54;;;;;;;23.50;21.20;;;5.40;99.90;;;;;;4961884;28;20455;-82
2020/12/12 04:07:20;;;;;;;23.90;21.30;;;5.40;99.90;;;;;;4960607;28;20447;-81
2020/12/12 04:09:46;;;;;;;24.07;21.77;;;5.40;99.90;;;;;;4961147;28;21118;-82
2020/12/12 04:12:13;;;;;;;22.43;20.23;;;5.40;99.90;;;;;;4961293;28;20451;-79
2020/12/12 04:14:39;;;;;;;20.03;18.23;;;5.50;99.90;;;;;;4962614;28;20805;-78
2020/12/12 04:17:05;;;;;;;21.33;19.53;;;5.50;99.90;;;;;;4966019;28;20455;-79
2020/12/12 04:19:31;;;;;;;21.53;19.60;;;5.60;99.90;;;;;;4964206;28;20459;-83
2020/12/12 04:21:59;;;;;;;21.53;19.53;;;5.60;99.90;;;;;;4965625;28;20479;-81
2020/12/12 04:24:25;;;;;;;20.30;18.60;;;5.60;99.90;;;;;;4972831;28;20980;-81
2020/12/12 04:26:51;;;;;;;20.70;18.70;;;5.60;99.90;;;;;;4973028;28;20465;-81
2020/12/12 04:29:17;;;;;;;22.47;20.13;;;5.50;99.90;;;;;;4971537;28;20933;-79
2020/12/12 04:31:43;;;;;;;22.67;20.70;;;5.40;99.90;;;;;;4971319;28;20443;-78
2020/12/12 04:34:09;;;;;;;20.87;18.97;;;5.40;99.90;;;;;;4971531;28;20446;-78
2020/12/12 04:36:36;;;;;;;23.00;20.77;;;5.30;99.90;;;;;;4971445;28;20458;-80
2020/12/12 04:39:04;;;;;;;22.40;20.37;;;5.30;99.90;;;;;;4972201;28;20489;-79
2020/12/12 04:41:34;;;;;;;22.57;20.37;;;5.20;99.90;;;;;;4970718;28;20829;-82
2020/12/12 04:44:00;;;;;;;22.47;20.47;;;5.20;99.90;;;;;;4970952;28;20447;-81
2020/12/12 04:46:27;;;;;;;23.87;21.40;;;5.20;99.90;;;;;;4973908;28;20442;-82
2020/12/12 04:48:53;;;;;;;24.33;21.93;;;5.20;99.90;;;;;;4971289;28;20444;-82
2020/12/12 04:51:20;;;;;;;22.60;20.30;;;5.20;99.90;;;;;;4971691;28;20443;-83
2020/12/12 04:53:48;;;;;;;23.00;20.70;;;5.30;99.90;;;;;;4973739;28;20478;-83
2020/12/12 04:56:23;;;;;;;23.13;20.80;;;5.30;99.90;;;;;;4971493;28;20461;-85
2020/12/12 04:58:50;;;;;;;24.83;22.57;;;5.30;99.90;;;;;;4971624;28;20443;-83
2020/12/12 05:01:17;;;;;;;23.80;21.50;;;5.20;99.90;;;;;;4970785;28;20466;-82
2020/12/12 05:03:44;;;;;;;21.63;19.47;;;5.20;99.90;;;;;;4972438;28;20491;-83
2020/12/12 05:06:10;;;;;;;23.20;20.97;;;5.20;99.90;;;;;;4969010;28;20467;-81
2020/12/12 05:08:37;;;;;;;22.53;20.43;;;5.20;99.90;;;;;;4970588;28;20446;-90
2020/12/12 05:11:03;;;;;;;23.87;21.40;;;5.20;99.90;;;;;;4974004;28;20460;-82
2020/12/12 05:13:31;;;;;;;22.87;20.63;;;5.20;99.90;;;;;;4968586;28;20440;-82
2020/12/12 05:15:59;;;;;;;23.37;21.17;;;5.10;99.90;;;;;;4966932;28;20435;-80
2020/12/12 05:18:25;;;;;;;26.17;23.90;;;5.20;99.90;;;;;;4972254;28;20909;-82
2020/12/12 05:20:52;;;;;;;22.93;20.60;;;5.20;99.90;;;;;;4970723;28;20979;-82
2020/12/12 05:23:20;;;;;;;25.40;22.90;;;5.20;99.90;;;;;;4969081;28;20475;-79
2020/12/12 05:25:47;;;;;;;24.50;22.13;;;5.20;99.90;;;;;;4968986;28;20448;-80
2020/12/12 05:28:15;;;;;;;23.73;21.53;;;5.20;99.90;;;;;;4966740;28;20436;-83
2020/12/12 05:30:44;;;;;;;24.77;22.20;;;5.20;99.90;;;;;;4961293;28;20658;-82
2020/12/12 05:33:12;;;;;;;24.23;21.93;;;5.20;99.90;;;;;;4962909;28;20498;-82
2020/12/12 05:35:38;;;;;;;26.47;23.87;;;5.20;99.90;;;;;;4962745;28;20444;-83
2020/12/12 05:38:07;;;;;;;24.53;22.13;;;5.20;99.90;;;;;;4962211;28;20872;-82
2020/12/12 05:40:35;;;;;;;22.60;20.50;;;5.10;99.90;;;;;;4962751;28;20448;-82
2020/12/12 05:43:02;;;;;;;22.97;20.77;;;5.20;99.90;;;;;;4963043;28;20495;-82
2020/12/12 05:45:28;;;;;;;23.10;21.03;;;5.10;99.90;;;;;;4961153;28;20878;-83
2020/12/12 05:47:55;;;;;;;23.13;20.60;;;5.10;99.90;;;;;;4962495;28;20458;-82
2020/12/12 05:50:22;;;;;;;26.60;23.90;;;5.10;99.90;;;;;;4962740;28;20961;-82
2020/12/12 05:52:51;;;;;;;25.80;22.13;;;5.10;99.90;;;;;;4961200;28;20494;-82
2020/12/12 05:55:18;;;;;;;21.60;19.50;;;5.20;99.90;;;;;;4961648;28;20435;-82
2020/12/12 05:57:44;;;;;;;22.87;20.57;;;5.20;99.90;;;;;;4962662;28;20819;-83
2020/12/12 06:00:10;;;;;;;21.93;19.83;;;5.20;99.90;;;;;;4961152;28;20444;-82
2020/12/12 06:02:37;;;;;;;22.53;20.33;;;5.20;99.90;;;;;;4942948;28;544740;-82
2020/12/12 06:05:06;;;;;;;21.43;19.60;;;5.30;99.90;;;;;;4963405;28;20443;-83
2020/12/12 06:07:33;;;;;;;22.17;20.10;;;5.30;99.90;;;;;;4961800;28;20818;-83
2020/12/12 06:10:01;;;;;;;22.90;20.83;;;5.30;99.90;;;;;;4961613;28;20448;-82
2020/12/12 06:12:28;;;;;;;22.13;20.13;;;5.30;99.90;;;;;;4962972;28;21440;-82
2020/12/12 06:14:56;;;;;;;20.60;18.77;;;5.40;99.90;;;;;;4961557;28;20852;-83
2020/12/12 06:17:50;;;;;;;20.63;18.90;;;5.40;99.90;;;;;;4962352;28;20440;-85
2020/12/12 06:20:20;;;;;;;21.50;19.40;;;5.40;99.90;;;;;;4963463;28;20443;-87
2020/12/12 06:22:47;;;;;;;20.97;19.07;;;5.40;99.90;;;;;;4963597;28;20480;-84
2020/12/12 06:25:15;;;;;;;20.23;18.50;;;5.40;99.90;;;;;;4962345;28;20444;-85
2020/12/12 06:27:45;;;;;;;21.33;19.37;;;5.40;99.90;;;;;;4961173;28;21101;-83
2020/12/12 06:30:13;;;;;;;21.27;19.60;;;5.40;99.90;;;;;;4961147;28;20455;-79
2020/12/12 06:32:40;;;;;;;22.07;20.47;;;5.40;99.90;;;;;;4962166;28;20479;-78
2020/12/12 06:35:07;;;;;;;24.63;22.50;;;5.40;99.90;;;;;;4960616;28;20879;-81
2020/12/12 06:37:35;;;;;;;24.87;22.60;;;5.50;99.90;;;;;;4961392;28;20444;-85
2020/12/12 06:40:04;;;;;;;27.13;24.67;;;5.40;99.90;;;;;;4963819;28;20538;-86
2020/12/12 06:42:32;;;;;;;30.00;26.03;;;5.40;99.90;;;;;;4960635;28;20513;-82
2020/12/12 06:44:59;;;;;;;29.60;27.13;;;5.30;99.90;;;;;;4961011;28;20440;-83
2020/12/12 06:47:39;;;;;;;29.07;26.70;;;5.30;99.90;;;;;;4962248;28;20447;-83
2020/12/12 06:50:08;;;;;;;30.87;28.07;;;5.20;99.90;;;;;;4962437;28;20456;-80
2020/12/12 06:52:35;;;;;;;29.23;26.60;;;5.20;99.90;;;;;;4962066;28;20450;-80
2020/12/12 06:55:07;;;;;;;31.40;28.90;;;5.20;99.90;;;;;;4960352;28;20451;-78
2020/12/12 06:57:37;;;;;;;31.53;28.97;;;5.20;99.90;;;;;;4961229;28;20471;-83
2020/12/12 07:00:05;;;;;;;32.43;29.70;;;5.10;99.90;;;;;;4961152;28;20503;-80
2020/12/12 07:02:32;;;;;;;34.97;32.03;;;5.10;99.90;;;;;;4961503;28;20495;-81
2020/12/12 07:05:19;;;;;;;35.37;32.07;;;5.00;99.90;;;;;;4961039;28;20784;-77
2020/12/12 07:07:46;;;;;;;38.77;35.27;;;5.00;99.90;;;;;;4959648;28;20830;-77
2020/12/12 07:10:13;;;;;;;40.77;36.60;;;5.00;99.90;;;;;;4961011;28;20452;-82
2020/12/12 07:12:39;;;;;;;40.57;36.70;;;5.00;99.90;;;;;;4959554;28;20444;-81
2020/12/12 07:15:06;;;;;;;40.37;36.50;;;5.00;99.90;;;;;;4961611;28;20450;-80
2020/12/12 07:17:33;;;;;;;40.20;36.33;;;5.00;99.90;;;;;;4961556;28;20436;-77
2020/12/12 07:20:00;;;;;;;38.57;34.77;;;5.00;99.90;;;;;;4959217;28;20447;-78
2020/12/12 07:22:28;;;;;;;38.97;35.20;;;5.10;99.90;;;;;;4961024;28;21656;-81
2020/12/12 07:24:57;;;;;;;40.37;37.00;;;5.10;99.90;;;;;;4961073;28;20490;-80
2020/12/12 07:27:23;;;;;;;54.03;48.93;;;5.20;99.90;;;;;;4959410;28;20452;-81
2020/12/12 07:29:49;;;;;;;58.10;52.30;;;5.20;99.90;;;;;;4960686;28;20429;-81
2020/12/12 07:32:16;;;;;;;59.07;52.90;;;5.20;99.90;;;;;;4961557;28;20456;-80
2020/12/12 07:34:42;;;;;;;58.37;52.47;;;5.20;99.90;;;;;;4959485;28;21150;-82
2020/12/12 07:37:10;;;;;;;41.93;38.23;;;5.30;99.90;;;;;;4961016;28;21077;-82
2020/12/12 07:39:38;;;;;;;38.00;34.50;;;5.30;99.90;;;;;;4962984;28;20503;-82
2020/12/12 07:42:07;;;;;;;30.70;28.17;;;5.40;99.90;;;;;;4959860;28;20471;-79
2020/12/12 07:44:33;;;;;;;33.23;30.83;;;5.40;99.90;;;;;;4959795;28;20452;-78
2020/12/12 07:47:02;;;;;;;29.17;27.17;;;5.50;99.90;;;;;;4960672;28;20455;-77
2020/12/12 07:49:29;;;;;;;31.97;29.33;;;5.50;99.90;;;;;;4963286;28;20467;-78
2020/12/12 07:52:00;;;;;;;28.10;26.00;;;5.60;99.90;;;;;;4963153;28;20448;-79
2020/12/12 07:54:33;;;;;;;27.47;25.47;;;5.60;99.90;;;;;;4963115;28;20443;-78
2020/12/12 07:56:59;;;;;;;26.53;24.67;;;5.60;99.90;;;;;;4962862;28;20501;-79
2020/12/12 07:59:26;;;;;;;28.90;26.83;;;5.70;99.90;;;;;;4964705;28;21021;-77
2020/12/12 08:01:52;;;;;;;29.80;28.00;;;5.80;99.90;;;;;;4963173;28;20475;-79
2020/12/12 08:04:23;;;;;;;29.10;27.30;;;5.80;99.90;;;;;;4964800;28;20479;-80
2020/12/12 08:06:49;;;;;;;27.67;25.80;;;6.00;99.90;;;;;;4965335;28;20455;-79
2020/12/12 08:09:20;;;;;;;27.70;25.70;;;6.10;99.90;;;;;;4963239;28;20456;-79
2020/12/12 08:11:57;;;;;;;28.63;26.63;;;6.00;99.90;;;;;;4963246;28;20443;-80
2020/12/12 08:14:24;;;;;;;32.30;29.77;;;6.10;99.90;;;;;;4963484;28;20448;-79
2020/12/12 08:16:57;;;;;;;31.40;29.10;;;6.00;99.90;;;;;;4964252;28;20538;-80
2020/12/12 08:19:23;;;;;;;27.30;25.30;;;6.00;99.90;;;;;;4964382;28;20448;-80
2020/12/12 08:21:52;;;;;;;29.33;27.00;;;6.00;99.90;;;;;;4964940;28;20456;-79
2020/12/12 08:24:19;;;;;;;29.57;27.27;;;5.90;99.90;;;;;;4963203;28;20456;-80
2020/12/12 08:26:45;;;;;;;30.63;28.00;;;5.80;99.90;;;;;;4962852;28;20454;-78
2020/12/12 08:29:11;;;;;;;28.93;26.70;;;5.90;99.90;;;;;;4964248;28;20455;-78
2020/12/12 08:31:39;;;;;;;29.80;27.30;;;5.90;99.90;;;;;;4962337;28;20823;-79
2020/12/12 08:34:07;;;;;;;28.30;26.00;;;5.90;99.90;;;;;;4962824;28;20444;-79
2020/12/12 08:36:35;;;;;;;27.93;25.40;;;6.00;99.90;;;;;;4962595;28;20456;-80
2020/12/12 08:39:04;;;;;;;26.73;24.53;;;6.00;99.90;;;;;;4965019;28;20444;-82
2020/12/12 08:41:33;;;;;;;29.40;27.13;;;6.10;99.90;;;;;;4962467;28;20712;-74
2020/12/12 08:43:59;;;;;;;31.07;28.60;;;6.10;99.90;;;;;;4962163;28;20483;-77
2020/12/12 08:46:26;;;;;;;28.50;26.43;;;6.30;99.90;;;;;;4964039;28;20855;-74
2020/12/12 08:48:54;;;;;;;29.73;27.57;;;6.40;99.90;;;;;;4961982;28;20871;-74
2020/12/12 08:51:25;;;;;;;29.53;27.10;;;6.40;99.90;;;;;;4961939;28;20451;-73
2020/12/12 08:53:52;;;;;;;27.20;25.33;;;6.30;99.90;;;;;;4963981;28;20447;-74
2020/12/12 08:56:27;;;;;;;28.33;26.27;;;6.30;99.90;;;;;;4963727;28;20814;-74
2020/12/12 08:58:57;;;;;;;27.73;25.83;;;6.30;99.90;;;;;;4965387;28;20451;-73
2020/12/12 09:01:38;;;;;;;25.63;23.90;;;6.40;99.90;;;;;;4962429;28;20471;-74
2020/12/12 09:04:22;;;;;;;27.40;25.20;;;6.40;99.90;;;;;;4963241;28;20487;-74
2020/12/12 09:06:55;;;;;;;23.83;22.30;;;6.50;99.90;;;;;;4961675;28;20522;-75
2020/12/12 09:09:24;;;;;;;25.63;23.90;;;6.50;99.90;;;;;;4962019;28;20475;-76
2020/12/12 09:11:56;;;;;;;25.13;23.50;;;6.50;99.90;;;;;;4961783;28;20450;-75
2020/12/12 09:14:22;;;;;;;23.27;21.87;;;6.60;99.90;;;;;;4961940;28;20455;-75
2020/12/12 09:16:50;;;;;;;27.00;25.13;;;6.60;99.90;;;;;;4963514;28;20934;-75
2020/12/12 09:19:17;;;;;;;23.90;22.50;;;6.70;99.90;;;;;;4961843;28;20530;-76
2020/12/12 09:21:43;;;;;;;23.60;22.20;;;6.70;99.90;;;;;;4963179;28;20809;-75
2020/12/12 09:24:10;;;;;;;24.13;22.67;;;6.70;99.90;;;;;;4963038;28;20526;-74
2020/12/12 09:26:36;;;;;;;21.87;20.50;;;6.60;99.90;;;;;;4963273;28;20475;-74
2020/12/12 09:29:03;;;;;;;21.13;19.90;;;6.70;99.90;;;;;;4961835;28;20451;-76
2020/12/12 09:31:30;;;;;;;21.77;20.57;;;6.70;99.90;;;;;;4963297;28;20448;-76
2020/12/12 09:33:56;;;;;;;23.27;21.60;;;6.80;99.90;;;;;;4961250;28;20823;-75
2020/12/12 09:36:23;;;;;;;22.03;20.63;;;6.80;99.90;;;;;;4963132;28;20856;-74
2020/12/12 09:38:49;;;;;;;21.93;20.40;;;6.80;99.90;;;;;;4962521;28;20440;-76
2020/12/12 09:41:17;;;;;;;22.17;20.87;;;6.80;99.90;;;;;;4961141;28;20451;-75
2020/12/12 09:43:43;;;;;;;19.10;18.10;;;6.90;99.90;;;;;;4962569;28;21053;-75
2020/12/12 09:46:10;;;;;;;20.07;18.87;;;6.90;99.90;;;;;;4960821;28;20444;-77
2020/12/12 09:48:37;;;;;;;20.07;18.87;;;7.00;99.90;;;;;;4961598;28;20459;-79
2020/12/12 09:51:03;;;;;;;18.67;17.57;;;7.10;99.90;;;;;;4963133;28;20474;-77
2020/12/12 09:53:30;;;;;;;18.07;17.07;;;7.30;99.90;;;;;;4970713;28;20448;-77
2020/12/12 09:55:56;;;;;;;19.03;17.93;;;7.50;99.90;;;;;;4969864;28;20444;-79
2020/12/12 09:58:24;;;;;;;18.30;17.30;;;7.50;99.90;;;;;;4971980;28;20858;-78
2020/12/12 10:00:50;;;;;;;16.90;15.90;;;7.70;99.90;;;;;;4971106;28;20993;-78
2020/12/12 10:03:17;;;;;;;16.07;15.23;;;7.80;99.90;;;;;;4969724;28;20486;-77
2020/12/12 10:05:43;;;;;;;16.00;15.13;;;7.80;99.90;;;;;;4969592;28;20446;-79
2020/12/12 10:08:10;;;;;;;14.80;14.00;;;7.80;99.90;;;;;;4971610;28;20446;-78
2020/12/12 10:10:36;;;;;;;15.97;14.77;;;7.70;99.90;;;;;;4972497;28;20435;-79
2020/12/12 10:13:02;;;;;;;16.03;15.13;;;7.60;99.90;;;;;;4969475;28;20922;-80
2020/12/12 10:15:29;;;;;;;15.33;14.33;;;7.50;99.90;;;;;;4974192;28;20438;-80
2020/12/12 10:17:56;;;;;;;13.97;13.07;;;7.70;99.90;;;;;;4983584;28;20948;-80
2020/12/12 10:20:23;;;;;;;13.13;12.43;;;7.60;99.90;;;;;;4981498;28;20531;-79
2020/12/12 10:22:50;;;;;;;12.73;12.13;;;7.60;99.90;;;;;;4982173;28;20521;-81
2020/12/12 10:25:16;;;;;;;13.00;12.30;;;7.70;99.90;;;;;;4981703;28;20439;-61
2020/12/12 10:27:44;;;;;;;14.57;13.87;;;7.80;99.90;;;;;;4980150;28;20438;-75
2020/12/12 10:30:12;;;;;;;14.80;14.00;;;7.80;99.90;;;;;;4979685;28;20538;-78
2020/12/12 10:32:39;;;;;;;12.73;12.13;;;8.00;99.90;;;;;;4981572;28;20453;-78
2020/12/12 10:35:07;;;;;;;12.10;11.53;;;7.90;99.90;;;;;;4980214;28;20951;-78
2020/12/12 10:37:33;;;;;;;13.23;12.53;;;8.00;99.90;;;;;;4980361;28;20439;-78
2020/12/12 10:40:06;;;;;;;12.53;11.93;;;8.00;99.90;;;;;;4974881;28;20466;-78
2020/12/12 10:42:33;;;;;;;12.50;11.80;;;8.00;99.90;;;;;;4964905;28;20613;-78
2020/12/12 10:44:59;;;;;;;13.07;12.40;;;8.00;99.90;;;;;;4978798;28;20454;-79
2020/12/12 10:47:25;;;;;;;14.63;13.63;;;7.80;99.90;;;;;;4979198;28;20440;-78
2020/12/12 10:49:53;;;;;;;12.80;12.20;;;7.90;99.90;;;;;;4961022;28;20455;-78
2020/12/12 10:52:19;;;;;;;12.53;11.87;;;7.90;99.90;;;;;;4963583;28;20448;-79
2020/12/12 10:54:47;;;;;;;11.30;10.80;;;8.00;99.90;;;;;;4960806;28;20429;-78
2020/12/12 10:57:14;;;;;;;12.10;11.40;;;8.10;99.90;;;;;;4985894;28;20530;-79
2020/12/12 10:59:42;;;;;;;12.17;11.57;;;8.10;99.90;;;;;;4991942;28;20949;-79
2020/12/12 11:02:09;;;;;;;11.83;11.23;;;8.10;99.90;;;;;;4991475;28;20475;-78
2020/12/12 11:04:35;;;;;;;12.47;11.97;;;8.20;99.90;;;;;;4991967;28;20454;-79
2020/12/12 11:07:02;;;;;;;13.03;12.27;;;8.20;99.90;;;;;;4991824;28;20443;-79
2020/12/12 11:09:28;;;;;;;11.30;10.70;;;8.30;99.90;;;;;;4992159;28;20869;-79
2020/12/12 11:11:54;;;;;;;11.77;11.17;;;8.30;99.90;;;;;;4991794;28;20450;-79
2020/12/12 11:14:20;;;;;;;12.23;11.63;;;8.40;99.90;;;;;;4978100;28;20436;-79
2020/12/12 11:16:47;;;;;;;13.00;12.40;;;8.50;99.90;;;;;;4972234;28;20942;-79
2020/12/12 11:19:13;;;;;;;12.47;11.87;;;8.60;99.90;;;;;;4972259;28;20470;-79
2020/12/12 11:21:40;;;;;;;13.33;12.63;;;8.80;99.90;;;;;;4972211;28;20454;-79
2020/12/12 11:24:08;;;;;;;12.13;11.53;;;8.60;99.90;;;;;;4971576;28;20479;-79
2020/12/12 11:26:34;;;;;;;13.40;12.60;;;8.30;99.90;;;;;;4972301;28;20451;-79
2020/12/12 11:29:00;;;;;;;12.40;11.80;;;8.30;99.90;;;;;;4972137;28;20827;-79
2020/12/12 11:31:26;;;;;;;12.33;11.70;;;8.20;99.90;;;;;;4972067;28;20456;-79
2020/12/12 11:33:57;;;;;;;12.43;11.80;;;8.20;99.90;;;;;;4972134;28;20455;-79
2020/12/12 11:39:12;;;;;;;14.33;13.73;;;8.10;99.90;;;;;;4951603;28;20804;-80
2020/12/12 11:41:56;;;;;;;13.17;12.57;;;8.20;99.90;;;;;;4972012;28;20547;-81
2020/12/12 11:44:41;;;;;;;14.20;13.40;;;8.30;99.90;;;;;;4972132;28;20609;-79
2020/12/12 11:47:08;;;;;;;14.70;14.00;;;8.20;99.90;;;;;;4974941;28;20542;-78
2020/12/12 11:49:34;;;;;;;12.87;12.23;;;8.20;99.90;;;;;;4991519;28;20446;-80
2020/12/12 11:52:00;;;;;;;14.57;13.70;;;8.20;99.90;;;;;;4991151;28;20450;-80
2020/12/12 11:54:28;;;;;;;13.30;12.70;;;8.30;99.90;;;;;;4991319;28;20485;-81
2020/12/12 11:56:54;;;;;;;13.57;13.00;;;8.20;99.90;;;;;;4991022;28;20449;-81
2020/12/12 11:59:20;;;;;;;13.80;13.20;;;8.20;99.90;;;;;;4991471;28;20466;-81
2020/12/12 12:01:46;;;;;;;14.70;14.07;;;8.30;99.90;;;;;;4991435;28;20508;-82
2020/12/12 12:04:12;;;;;;;14.30;13.70;;;8.30;99.90;;;;;;4991100;28;20494;-80
2020/12/12 12:06:39;;;;;;;14.77;14.07;;;8.30;99.90;;;;;;4991190;28;20451;-81
2020/12/12 12:11:56;;;;;;;14.70;13.80;;;8.30;99.90;;;;;;4980579;28;21003;-81
2020/12/12 12:14:22;;;;;;;14.60;14.00;;;8.20;99.90;;;;;;4991204;28;20438;-81
2020/12/12 12:16:48;;;;;;;15.07;14.40;;;8.20;99.90;;;;;;4991385;28;20447;-79
2020/12/12 12:19:15;;;;;;;15.97;15.07;;;8.30;99.90;;;;;;4991458;28;20454;-79
2020/12/12 12:21:43;;;;;;;15.27;14.60;;;8.30;99.90;;;;;;4991212;28;20442;-79
2020/12/12 12:24:13;;;;;;;15.17;14.30;;;8.30;99.90;;;;;;4990879;28;20493;-79
2020/12/12 12:26:39;;;;;;;15.00;14.40;;;8.30;99.90;;;;;;4990935;28;20959;-80
2020/12/12 12:29:08;;;;;;;15.10;14.50;;;8.20;99.90;;;;;;4991304;28;20450;-78
2020/12/12 12:31:35;;;;;;;16.07;15.20;;;8.30;99.90;;;;;;4991059;28;20458;-79
2020/12/12 12:34:01;;;;;;;16.40;15.50;;;8.20;99.90;;;;;;4991050;28;20847;-79
2020/12/12 12:36:29;;;;;;;15.87;15.17;;;8.20;99.90;;;;;;4993010;28;20458;-78
2020/12/12 12:38:57;;;;;;;15.90;15.10;;;8.20;99.90;;;;;;4994354;28;20450;-79
2020/12/12 12:41:25;;;;;;;15.53;14.73;;;8.10;99.90;;;;;;4994454;28;20438;-80